sensor_id;sensor_type;location;lat;lon;timestamp;temperature;humidity
6252;DHT22;3159;52.414;9.784;2023-05-03T00:00:08;9.00;99.90
6252;DHT22;3159;52.414;9.784;2023-05-03T00:02:38;9.00;99.90
6252;DHT22;3159;52.414;9.784;2023-05-03T00:05:09;9.00;99.90
6252;DHT22;3159;52.414;9.784;2023-05-03T00:07:41;8.90;99.90
6252;DHT22;3159;52.414;9.784;2023-05-03T00:10:09;8.90;99.90
6252;DHT22;3159;52.414;9.784;2023-05-03T00:12:38;8.90;99.90
6252;DHT22;3159;52.414;9.784;2023-05-03T00:15:06;8.80;99.90
6252;DHT22;3159;52.414;9.784;2023-05-03T00:17:34;8.80;99.90
6252;DHT22;3159;52.414;9.784;2023-05-03T00:20:02;8.80;99.90
6252;DHT22;3159;52.414;9.784;2023-05-03T00:22:30;8.80;99.90
6252;DHT22;3159;52.414;9.784;2023-05-03T00:24:58;8.80;99.90
6252;DHT22;3159;52.414;9.784;2023-05-03T00:27:25;8.70;99.90
6252;DHT22;3159;52.414;9.784;2023-05-03T00:29:51;8.80;99.90
6252;DHT22;3159;52.414;9.784;2023-05-03T00:32:19;8.70;99.90
6252;DHT22;3159;52.414;9.784;2023-05-03T00:34:51;8.70;99.90
6252;DHT22;3159;52.414;9.784;2023-05-03T00:37:19;8.60;99.90
6252;DHT22;3159;52.414;9.784;2023-05-03T00:39:45;8.60;99.90
6252;DHT22;3159;52.414;9.784;2023-05-03T00:42:12;8.50;99.90
6252;DHT22;3159;52.414;9.784;2023-05-03T00:44:39;8.40;99.90
6252;DHT22;3159;52.414;9.784;2023-05-03T00:47:06;8.40;99.90
6252;DHT22;3159;52.414;9.784;2023-05-03T00:49:33;8.40;99.90
6252;DHT22;3159;52.414;9.784;2023-05-03T00:52:00;8.40;99.90
6252;DHT22;3159;52.414;9.784;2023-05-03T00:54:29;8.40;99.90
6252;DHT22;3159;52.414;9.784;2023-05-03T00:56:57;8.40;99.90
6252;DHT22;3159;52.414;9.784;2023-05-03T00:59:27;8.40;99.90
6252;DHT22;3159;52.414;9.784;2023-05-03T01:01:54;8.40;99.90
6252;DHT22;3159;52.414;9.784;2023-05-03T01:04:22;8.40;99.90
6252;DHT22;3159;52.414;9.784;2023-05-03T01:06:57;8.40;99.90
6252;DHT22;3159;52.414;9.784;2023-05-03T01:09:31;8.40;99.90
6252;DHT22;3159;52.414;9.784;2023-05-03T01:12:14;8.30;99.90
6252;DHT22;3159;52.414;9.784;2023-05-03T01:14:48;8.30;99.90
6252;DHT22;3159;52.414;9.784;2023-05-03T01:17:28;8.20;99.90
6252;DHT22;3159;52.414;9.784;2023-05-03T01:20:04;8.30;99.90
6252;DHT22;3159;52.414;9.784;2023-05-03T01:22:41;8.20;99.90
6252;DHT22;3159;52.414;9.784;2023-05-03T01:25:12;8.30;99.90
6252;DHT22;3159;52.414;9.784;2023-05-03T01:27:40;8.20;99.90
6252;DHT22;3159;52.414;9.784;2023-05-03T01:30:08;8.20;99.90
6252;DHT22;3159;52.414;9.784;2023-05-03T01:32:48;8.20;99.90
6252;DHT22;3159;52.414;9.784;2023-05-03T01:35:25;8.20;99.90
6252;DHT22;3159;52.414;9.784;2023-05-03T01:37:55;8.20;99.90
6252;DHT22;3159;52.414;9.784;2023-05-03T01:40:26;8.20;99.90
6252;DHT22;3159;52.414;9.784;2023-05-03T01:42:54;8.20;99.90
6252;DHT22;3159;52.414;9.784;2023-05-03T01:45:22;8.20;99.90
6252;DHT22;3159;52.414;9.784;2023-05-03T01:47:49;8.10;99.90
6252;DHT22;3159;52.414;9.784;2023-05-03T01:50:16;8.10;99.90
6252;DHT22;3159;52.414;9.784;2023-05-03T01:52:42;8.10;99.90
6252;DHT22;3159;52.414;9.784;2023-05-03T01:55:10;8.10;99.90
6252;DHT22;3159;52.414;9.784;2023-05-03T01:57:38;8.10;99.90
6252;DHT22;3159;52.414;9.784;2023-05-03T02:00:06;7.90;99.90
6252;DHT22;3159;52.414;9.784;2023-05-03T02:02:34;8.00;99.90
6252;DHT22;3159;52.414;9.784;2023-05-03T02:05:01;8.00;99.90
6252;DHT22;3159;52.414;9.784;2023-05-03T02:07:28;8.00;99.90
6252;DHT22;3159;52.414;9.784;2023-05-03T02:09:55;8.00;99.90
6252;DHT22;3159;52.414;9.784;2023-05-03T02:12:22;8.00;99.90
6252;DHT22;3159;52.414;9.784;2023-05-03T02:14:50;7.90;99.90
6252;DHT22;3159;52.414;9.784;2023-05-03T02:17:17;7.90;99.90
6252;DHT22;3159;52.414;9.784;2023-05-03T02:19:45;7.90;99.90
6252;DHT22;3159;52.414;9.784;2023-05-03T02:22:12;7.80;99.90
6252;DHT22;3159;52.414;9.784;2023-05-03T02:24:39;7.80;99.90
6252;DHT22;3159;52.414;9.784;2023-05-03T02:27:05;7.70;99.90
6252;DHT22;3159;52.414;9.784;2023-05-03T02:29:32;7.70;99.90
6252;DHT22;3159;52.414;9.784;2023-05-03T02:32:00;7.70;99.90
6252;DHT22;3159;52.414;9.784;2023-05-03T02:34:30;7.80;99.90
6252;DHT22;3159;52.414;9.784;2023-05-03T02:36:57;7.70;99.90
6252;DHT22;3159;52.414;9.784;2023-05-03T02:39:24;7.70;99.90
6252;DHT22;3159;52.414;9.784;2023-05-03T02:41:50;7.70;99.90
6252;DHT22;3159;52.414;9.784;2023-05-03T02:44:17;7.70;99.90
6252;DHT22;3159;52.414;9.784;2023-05-03T02:46:44;7.70;99.90
6252;DHT22;3159;52.414;9.784;2023-05-03T02:49:12;7.70;99.90
6252;DHT22;3159;52.414;9.784;2023-05-03T02:51:39;7.70;99.90
6252;DHT22;3159;52.414;9.784;2023-05-03T02:54:06;7.60;99.90
6252;DHT22;3159;52.414;9.784;2023-05-03T02:56:32;7.50;99.90
6252;DHT22;3159;52.414;9.784;2023-05-03T02:58:59;7.40;99.90
6252;DHT22;3159;52.414;9.784;2023-05-03T03:01:26;7.50;99.90
6252;DHT22;3159;52.414;9.784;2023-05-03T03:03:54;7.50;99.90
6252;DHT22;3159;52.414;9.784;2023-05-03T03:06:22;7.50;99.90
6252;DHT22;3159;52.414;9.784;2023-05-03T03:08:49;7.50;99.90
6252;DHT22;3159;52.414;9.784;2023-05-03T03:11:16;7.60;99.90
6252;DHT22;3159;52.414;9.784;2023-05-03T03:13:43;7.50;99.90
6252;DHT22;3159;52.414;9.784;2023-05-03T03:16:10;7.50;99.90
6252;DHT22;3159;52.414;9.784;2023-05-03T03:18:37;7.50;99.90
6252;DHT22;3159;52.414;9.784;2023-05-03T03:21:07;7.40;99.90
6252;DHT22;3159;52.414;9.784;2023-05-03T03:23:36;7.40;99.90
6252;DHT22;3159;52.414;9.784;2023-05-03T03:26:03;7.40;99.90
6252;DHT22;3159;52.414;9.784;2023-05-03T03:28:29;7.40;99.90
6252;DHT22;3159;52.414;9.784;2023-05-03T03:30:56;7.40;99.90
6252;DHT22;3159;52.414;9.784;2023-05-03T03:33:23;7.40;99.90
6252;DHT22;3159;52.414;9.784;2023-05-03T03:35:53;7.40;99.90
6252;DHT22;3159;52.414;9.784;2023-05-03T03:38:20;7.40;99.90
6252;DHT22;3159;52.414;9.784;2023-05-03T03:40:48;7.40;99.90
6252;DHT22;3159;52.414;9.784;2023-05-03T03:43:15;7.40;99.90
6252;DHT22;3159;52.414;9.784;2023-05-03T03:45:41;7.40;99.90
6252;DHT22;3159;52.414;9.784;2023-05-03T03:48:08;7.40;99.90
6252;DHT22;3159;52.414;9.784;2023-05-03T03:50:37;7.30;99.90
6252;DHT22;3159;52.414;9.784;2023-05-03T03:53:03;7.30;99.90
6252;DHT22;3159;52.414;9.784;2023-05-03T03:55:30;7.30;99.90
6252;DHT22;3159;52.414;9.784;2023-05-03T03:57:59;7.40;99.90
6252;DHT22;3159;52.414;9.784;2023-05-03T04:00:26;7.40;99.90
6252;DHT22;3159;52.414;9.784;2023-05-03T04:02:53;7.20;99.90
6252;DHT22;3159;52.414;9.784;2023-05-03T04:05:20;7.20;99.90
6252;DHT22;3159;52.414;9.784;2023-05-03T04:07:47;7.30;99.90
6252;DHT22;3159;52.414;9.784;2023-05-03T04:10:14;7.30;99.90
6252;DHT22;3159;52.414;9.784;2023-05-03T04:12:40;7.30;99.90
6252;DHT22;3159;52.414;9.784;2023-05-03T04:15:10;7.30;99.90
6252;DHT22;3159;52.414;9.784;2023-05-03T04:17:37;7.30;99.90
6252;DHT22;3159;52.414;9.784;2023-05-03T04:20:05;7.30;99.90
6252;DHT22;3159;52.414;9.784;2023-05-03T04:22:35;7.40;99.90
6252;DHT22;3159;52.414;9.784;2023-05-03T04:25:02;7.40;99.90
6252;DHT22;3159;52.414;9.784;2023-05-03T04:27:29;7.40;99.90
6252;DHT22;3159;52.414;9.784;2023-05-03T04:29:57;7.30;99.90
6252;DHT22;3159;52.414;9.784;2023-05-03T04:32:26;7.40;99.90
6252;DHT22;3159;52.414;9.784;2023-05-03T04:34:53;7.40;99.90
6252;DHT22;3159;52.414;9.784;2023-05-03T04:37:21;7.40;99.90
6252;DHT22;3159;52.414;9.784;2023-05-03T04:39:48;7.40;99.90
6252;DHT22;3159;52.414;9.784;2023-05-03T04:42:15;7.40;99.90
6252;DHT22;3159;52.414;9.784;2023-05-03T04:44:42;7.40;99.90
6252;DHT22;3159;52.414;9.784;2023-05-03T04:47:09;7.40;99.90
6252;DHT22;3159;52.414;9.784;2023-05-03T04:49:37;7.50;99.90
6252;DHT22;3159;52.414;9.784;2023-05-03T04:52:04;7.50;99.90
6252;DHT22;3159;52.414;9.784;2023-05-03T04:54:31;7.40;99.90
6252;DHT22;3159;52.414;9.784;2023-05-03T04:56:58;7.40;99.90
6252;DHT22;3159;52.414;9.784;2023-05-03T04:59:25;7.50;99.90
6252;DHT22;3159;52.414;9.784;2023-05-03T05:01:52;7.60;99.90
6252;DHT22;3159;52.414;9.784;2023-05-03T05:04:19;7.60;99.90
6252;DHT22;3159;52.414;9.784;2023-05-03T05:06:49;7.40;99.90
6252;DHT22;3159;52.414;9.784;2023-05-03T05:09:21;7.40;99.90
6252;DHT22;3159;52.414;9.784;2023-05-03T05:11:48;7.40;99.90
6252;DHT22;3159;52.414;9.784;2023-05-03T05:14:15;7.40;99.90
6252;DHT22;3159;52.414;9.784;2023-05-03T05:16:42;7.40;99.90
6252;DHT22;3159;52.414;9.784;2023-05-03T05:19:09;7.30;99.90
6252;DHT22;3159;52.414;9.784;2023-05-03T05:21:35;7.40;99.90
6252;DHT22;3159;52.414;9.784;2023-05-03T05:24:04;7.70;99.90
6252;DHT22;3159;52.414;9.784;2023-05-03T05:26:31;7.80;99.90
6252;DHT22;3159;52.414;9.784;2023-05-03T05:28:58;7.80;99.90
6252;DHT22;3159;52.414;9.784;2023-05-03T05:31:25;7.90;99.90
6252;DHT22;3159;52.414;9.784;2023-05-03T05:33:51;8.00;99.90
6252;DHT22;3159;52.414;9.784;2023-05-03T05:36:18;8.00;99.90
6252;DHT22;3159;52.414;9.784;2023-05-03T05:38:45;8.10;99.90
6252;DHT22;3159;52.414;9.784;2023-05-03T05:41:13;8.20;99.90
6252;DHT22;3159;52.414;9.784;2023-05-03T05:43:40;8.00;99.90
6252;DHT22;3159;52.414;9.784;2023-05-03T05:46:07;8.10;99.90
6252;DHT22;3159;52.414;9.784;2023-05-03T05:48:34;8.10;99.90
6252;DHT22;3159;52.414;9.784;2023-05-03T05:51:01;8.10;99.90
6252;DHT22;3159;52.414;9.784;2023-05-03T05:53:28;8.20;99.90
6252;DHT22;3159;52.414;9.784;2023-05-03T05:55:54;8.20;99.90
6252;DHT22;3159;52.414;9.784;2023-05-03T05:58:23;8.30;99.90
6252;DHT22;3159;52.414;9.784;2023-05-03T06:00:49;8.40;99.90
6252;DHT22;3159;52.414;9.784;2023-05-03T06:03:17;8.60;99.90
6252;DHT22;3159;52.414;9.784;2023-05-03T06:05:43;8.50;99.90
6252;DHT22;3159;52.414;9.784;2023-05-03T06:08:10;8.60;99.90
6252;DHT22;3159;52.414;9.784;2023-05-03T06:10:37;8.70;99.90
6252;DHT22;3159;52.414;9.784;2023-05-03T06:13:04;8.90;99.90
6252;DHT22;3159;52.414;9.784;2023-05-03T06:15:32;8.90;99.90
6252;DHT22;3159;52.414;9.784;2023-05-03T06:17:59;9.00;99.90
6252;DHT22;3159;52.414;9.784;2023-05-03T06:20:26;8.90;99.90
6252;DHT22;3159;52.414;9.784;2023-05-03T06:22:53;8.90;99.90
6252;DHT22;3159;52.414;9.784;2023-05-03T06:25:19;9.10;99.90
6252;DHT22;3159;52.414;9.784;2023-05-03T06:27:46;9.20;99.90
6252;DHT22;3159;52.414;9.784;2023-05-03T06:30:13;9.20;99.90
6252;DHT22;3159;52.414;9.784;2023-05-03T06:32:42;9.30;99.90
6252;DHT22;3159;52.414;9.784;2023-05-03T06:35:09;9.40;99.90
6252;DHT22;3159;52.414;9.784;2023-05-03T06:37:37;9.30;99.90
6252;DHT22;3159;52.414;9.784;2023-05-03T06:40:05;9.50;99.90
6252;DHT22;3159;52.414;9.784;2023-05-03T06:42:32;9.80;99.90
6252;DHT22;3159;52.414;9.784;2023-05-03T06:44:59;9.80;99.90
6252;DHT22;3159;52.414;9.784;2023-05-03T06:47:26;10.00;99.90
6252;DHT22;3159;52.414;9.784;2023-05-03T06:49:54;10.20;99.90
6252;DHT22;3159;52.414;9.784;2023-05-03T06:52:21;10.40;99.90
6252;DHT22;3159;52.414;9.784;2023-05-03T06:54:47;10.30;99.90
6252;DHT22;3159;52.414;9.784;2023-05-03T06:57:14;10.50;99.90
6252;DHT22;3159;52.414;9.784;2023-05-03T06:59:41;10.70;99.90
6252;DHT22;3159;52.414;9.784;2023-05-03T07:02:08;10.70;99.90
6252;DHT22;3159;52.414;9.784;2023-05-03T07:04:35;10.80;99.90
6252;DHT22;3159;52.414;9.784;2023-05-03T07:07:03;10.80;99.90
6252;DHT22;3159;52.414;9.784;2023-05-03T07:09:30;11.20;99.90
6252;DHT22;3159;52.414;9.784;2023-05-03T07:11:57;11.10;99.90
6252;DHT22;3159;52.414;9.784;2023-05-03T07:14:24;11.30;99.90
6252;DHT22;3159;52.414;9.784;2023-05-03T07:16:51;11.50;99.90
6252;DHT22;3159;52.414;9.784;2023-05-03T07:19:18;11.30;99.90
6252;DHT22;3159;52.414;9.784;2023-05-03T07:21:45;11.40;99.90
6252;DHT22;3159;52.414;9.784;2023-05-03T07:24:13;11.60;99.90
6252;DHT22;3159;52.414;9.784;2023-05-03T07:26:40;11.80;99.90
6252;DHT22;3159;52.414;9.784;2023-05-03T07:29:07;11.80;99.90
6252;DHT22;3159;52.414;9.784;2023-05-03T07:31:33;12.10;99.90
6252;DHT22;3159;52.414;9.784;2023-05-03T07:34:01;11.40;99.90
6252;DHT22;3159;52.414;9.784;2023-05-03T07:36:27;11.30;99.90
6252;DHT22;3159;52.414;9.784;2023-05-03T07:38:54;11.80;99.90
6252;DHT22;3159;52.414;9.784;2023-05-03T07:41:22;12.40;99.90
6252;DHT22;3159;52.414;9.784;2023-05-03T07:43:50;12.50;99.90
6252;DHT22;3159;52.414;9.784;2023-05-03T07:46:16;11.90;99.90
6252;DHT22;3159;52.414;9.784;2023-05-03T07:48:44;12.30;99.90
6252;DHT22;3159;52.414;9.784;2023-05-03T07:51:11;12.60;99.90
6252;DHT22;3159;52.414;9.784;2023-05-03T07:53:38;13.00;99.90
6252;DHT22;3159;52.414;9.784;2023-05-03T07:56:06;13.00;99.90
6252;DHT22;3159;52.414;9.784;2023-05-03T07:58:34;13.50;99.90
6252;DHT22;3159;52.414;9.784;2023-05-03T08:01:01;13.90;99.90
6252;DHT22;3159;52.414;9.784;2023-05-03T08:03:28;14.30;99.90
6252;DHT22;3159;52.414;9.784;2023-05-03T08:05:55;14.40;99.90
6252;DHT22;3159;52.414;9.784;2023-05-03T08:08:22;13.50;99.90
6252;DHT22;3159;52.414;9.784;2023-05-03T08:10:51;13.90;99.90
6252;DHT22;3159;52.414;9.784;2023-05-03T08:13:18;14.40;99.90
6252;DHT22;3159;52.414;9.784;2023-05-03T08:15:48;14.70;99.90
6252;DHT22;3159;52.414;9.784;2023-05-03T08:18:15;14.90;99.90
6252;DHT22;3159;52.414;9.784;2023-05-03T08:20:42;15.10;99.90
6252;DHT22;3159;52.414;9.784;2023-05-03T08:23:11;15.70;99.90
6252;DHT22;3159;52.414;9.784;2023-05-03T08:25:38;14.80;99.90
6252;DHT22;3159;52.414;9.784;2023-05-03T08:28:05;14.20;99.90
6252;DHT22;3159;52.414;9.784;2023-05-03T08:30:32;14.50;99.90
6252;DHT22;3159;52.414;9.784;2023-05-03T08:33:01;14.40;99.90
6252;DHT22;3159;52.414;9.784;2023-05-03T08:35:29;13.70;99.90
6252;DHT22;3159;52.414;9.784;2023-05-03T08:37:56;12.40;99.90
6252;DHT22;3159;52.414;9.784;2023-05-03T08:40:26;12.60;99.90
6252;DHT22;3159;52.414;9.784;2023-05-03T08:42:54;13.30;99.90
6252;DHT22;3159;52.414;9.784;2023-05-03T08:45:22;14.70;99.90
6252;DHT22;3159;52.414;9.784;2023-05-03T08:47:53;14.80;99.90
6252;DHT22;3159;52.414;9.784;2023-05-03T08:50:21;15.20;99.90
6252;DHT22;3159;52.414;9.784;2023-05-03T08:52:48;15.50;99.90
6252;DHT22;3159;52.414;9.784;2023-05-03T08:55:15;15.70;99.90
6252;DHT22;3159;52.414;9.784;2023-05-03T08:57:42;16.10;99.90
6252;DHT22;3159;52.414;9.784;2023-05-03T09:00:11;16.30;99.90
6252;DHT22;3159;52.414;9.784;2023-05-03T09:02:39;16.90;99.90
6252;DHT22;3159;52.414;9.784;2023-05-03T09:05:34;17.00;99.90
6252;DHT22;3159;52.414;9.784;2023-05-03T09:08:04;16.70;99.90
6252;DHT22;3159;52.414;9.784;2023-05-03T09:10:32;17.00;99.90
6252;DHT22;3159;52.414;9.784;2023-05-03T09:13:00;17.40;99.90
6252;DHT22;3159;52.414;9.784;2023-05-03T09:15:27;17.20;99.90
6252;DHT22;3159;52.414;9.784;2023-05-03T09:18:09;18.10;99.90
6252;DHT22;3159;52.414;9.784;2023-05-03T09:20:38;18.00;99.90
6252;DHT22;3159;52.414;9.784;2023-05-03T09:23:06;18.30;99.90
6252;DHT22;3159;52.414;9.784;2023-05-03T09:25:40;17.50;99.90
6252;DHT22;3159;52.414;9.784;2023-05-03T09:28:07;17.80;99.90
6252;DHT22;3159;52.414;9.784;2023-05-03T09:30:34;16.30;99.90
6252;DHT22;3159;52.414;9.784;2023-05-03T09:33:01;16.40;99.90
6252;DHT22;3159;52.414;9.784;2023-05-03T09:35:29;17.90;99.90
6252;DHT22;3159;52.414;9.784;2023-05-03T09:37:58;18.10;99.90
6252;DHT22;3159;52.414;9.784;2023-05-03T09:40:25;18.60;99.90
6252;DHT22;3159;52.414;9.784;2023-05-03T09:43:05;18.40;99.90
6252;DHT22;3159;52.414;9.784;2023-05-03T09:45:32;18.60;99.90
6252;DHT22;3159;52.414;9.784;2023-05-03T09:48:01;16.80;99.90
6252;DHT22;3159;52.414;9.784;2023-05-03T09:50:33;16.20;99.90
6252;DHT22;3159;52.414;9.784;2023-05-03T09:53:04;14.50;99.90
6252;DHT22;3159;52.414;9.784;2023-05-03T09:55:32;16.90;99.90
6252;DHT22;3159;52.414;9.784;2023-05-03T09:57:59;17.40;99.90
6252;DHT22;3159;52.414;9.784;2023-05-03T10:00:28;17.20;99.90
6252;DHT22;3159;52.414;9.784;2023-05-03T10:02:56;17.90;99.90
6252;DHT22;3159;52.414;9.784;2023-05-03T10:05:29;17.80;99.90
6252;DHT22;3159;52.414;9.784;2023-05-03T10:07:59;18.20;99.90
6252;DHT22;3159;52.414;9.784;2023-05-03T10:10:30;18.60;99.90
6252;DHT22;3159;52.414;9.784;2023-05-03T10:12:59;18.80;99.90
6252;DHT22;3159;52.414;9.784;2023-05-03T10:15:27;19.10;99.90
6252;DHT22;3159;52.414;9.784;2023-05-03T10:17:56;18.40;99.90
6252;DHT22;3159;52.414;9.784;2023-05-03T10:20:26;19.00;99.90
6252;DHT22;3159;52.414;9.784;2023-05-03T10:23:08;19.60;99.90
6252;DHT22;3159;52.414;9.784;2023-05-03T10:25:38;19.20;99.90
6252;DHT22;3159;52.414;9.784;2023-05-03T10:28:06;19.70;99.90
6252;DHT22;3159;52.414;9.784;2023-05-03T10:30:34;19.40;99.90
6252;DHT22;3159;52.414;9.784;2023-05-03T10:33:29;20.00;99.90
6252;DHT22;3159;52.414;9.784;2023-05-03T10:35:57;19.00;99.10
6252;DHT22;3159;52.414;9.784;2023-05-03T10:38:26;18.80;99.90
6252;DHT22;3159;52.414;9.784;2023-05-03T10:40:55;19.00;99.90
6252;DHT22;3159;52.414;9.784;2023-05-03T10:43:42;16.40;99.90
6252;DHT22;3159;52.414;9.784;2023-05-03T10:46:28;17.70;99.90
6252;DHT22;3159;52.414;9.784;2023-05-03T10:49:25;18.90;99.90
6252;DHT22;3159;52.414;9.784;2023-05-03T10:51:52;19.40;99.90
6252;DHT22;3159;52.414;9.784;2023-05-03T10:54:19;19.80;99.90
6252;DHT22;3159;52.414;9.784;2023-05-03T10:56:54;20.00;99.90
6252;DHT22;3159;52.414;9.784;2023-05-03T10:59:23;20.10;99.90
6252;DHT22;3159;52.414;9.784;2023-05-03T11:01:51;18.50;99.10
6252;DHT22;3159;52.414;9.784;2023-05-03T11:04:39;19.40;99.90
6252;DHT22;3159;52.414;9.784;2023-05-03T11:07:07;19.50;98.90
6252;DHT22;3159;52.414;9.784;2023-05-03T11:09:34;20.30;99.90
6252;DHT22;3159;52.414;9.784;2023-05-03T11:12:06;19.90;99.70
6252;DHT22;3159;52.414;9.784;2023-05-03T11:14:34;17.30;98.20
6252;DHT22;3159;52.414;9.784;2023-05-03T11:17:01;18.50;99.90
6252;DHT22;3159;52.414;9.784;2023-05-03T11:19:28;19.60;99.90
6252;DHT22;3159;52.414;9.784;2023-05-03T11:21:55;19.30;97.30
6252;DHT22;3159;52.414;9.784;2023-05-03T11:24:22;19.30;99.10
6252;DHT22;3159;52.414;9.784;2023-05-03T11:26:49;20.00;99.00
6252;DHT22;3159;52.414;9.784;2023-05-03T11:29:17;20.00;98.00
6252;DHT22;3159;52.414;9.784;2023-05-03T11:31:46;20.30;98.60
6252;DHT22;3159;52.414;9.784;2023-05-03T11:34:13;20.50;97.50
6252;DHT22;3159;52.414;9.784;2023-05-03T11:36:40;20.90;97.90
6252;DHT22;3159;52.414;9.784;2023-05-03T11:39:07;19.40;97.50
6252;DHT22;3159;52.414;9.784;2023-05-03T11:41:34;18.70;98.50
6252;DHT22;3159;52.414;9.784;2023-05-03T11:44:01;20.20;98.30
6252;DHT22;3159;52.414;9.784;2023-05-03T11:46:33;20.00;96.90
6252;DHT22;3159;52.414;9.784;2023-05-03T11:49:01;20.70;97.50
6252;DHT22;3159;52.414;9.784;2023-05-03T11:51:28;20.70;97.70
6252;DHT22;3159;52.414;9.784;2023-05-03T11:53:57;20.00;96.20
6252;DHT22;3159;52.414;9.784;2023-05-03T11:56:24;20.30;97.30
6252;DHT22;3159;52.414;9.784;2023-05-03T11:58:53;20.20;96.90
6252;DHT22;3159;52.414;9.784;2023-05-03T12:01:22;21.20;97.10
6252;DHT22;3159;52.414;9.784;2023-05-03T12:03:53;21.10;97.50
6252;DHT22;3159;52.414;9.784;2023-05-03T12:06:21;20.80;97.00
6252;DHT22;3159;52.414;9.784;2023-05-03T12:08:48;20.20;95.30
6252;DHT22;3159;52.414;9.784;2023-05-03T12:11:15;19.80;96.40
6252;DHT22;3159;52.414;9.784;2023-05-03T12:13:42;19.60;96.70
6252;DHT22;3159;52.414;9.784;2023-05-03T12:16:09;20.50;97.30
6252;DHT22;3159;52.414;9.784;2023-05-03T12:18:50;20.40;96.20
6252;DHT22;3159;52.414;9.784;2023-05-03T12:21:19;20.20;96.00
6252;DHT22;3159;52.414;9.784;2023-05-03T12:23:46;20.10;96.20
6252;DHT22;3159;52.414;9.784;2023-05-03T12:26:16;20.30;95.60
6252;DHT22;3159;52.414;9.784;2023-05-03T12:28:44;20.00;95.60
6252;DHT22;3159;52.414;9.784;2023-05-03T12:31:12;19.80;96.10
6252;DHT22;3159;52.414;9.784;2023-05-03T12:33:39;20.60;96.30
6252;DHT22;3159;52.414;9.784;2023-05-03T12:36:06;20.20;96.10
6252;DHT22;3159;52.414;9.784;2023-05-03T12:38:35;17.30;95.40
6252;DHT22;3159;52.414;9.784;2023-05-03T12:41:02;17.90;96.70
6252;DHT22;3159;52.414;9.784;2023-05-03T12:43:28;18.50;97.20
6252;DHT22;3159;52.414;9.784;2023-05-03T12:45:55;19.30;96.70
6252;DHT22;3159;52.414;9.784;2023-05-03T12:48:27;19.90;96.50
6252;DHT22;3159;52.414;9.784;2023-05-03T12:50:54;20.30;96.40
6252;DHT22;3159;52.414;9.784;2023-05-03T12:53:21;20.20;96.40
6252;DHT22;3159;52.414;9.784;2023-05-03T12:55:49;20.30;96.00
6252;DHT22;3159;52.414;9.784;2023-05-03T12:58:16;20.00;96.50
6252;DHT22;3159;52.414;9.784;2023-05-03T13:00:43;20.00;95.20
6252;DHT22;3159;52.414;9.784;2023-05-03T13:03:12;19.10;96.30
6252;DHT22;3159;52.414;9.784;2023-05-03T13:05:39;19.30;96.50
6252;DHT22;3159;52.414;9.784;2023-05-03T13:08:06;19.90;96.40
6252;DHT22;3159;52.414;9.784;2023-05-03T13:10:33;20.00;96.70
6252;DHT22;3159;52.414;9.784;2023-05-03T13:13:01;20.10;96.10
6252;DHT22;3159;52.414;9.784;2023-05-03T13:15:28;20.20;96.60
6252;DHT22;3159;52.414;9.784;2023-05-03T13:17:55;18.20;95.30
6252;DHT22;3159;52.414;9.784;2023-05-03T13:20:26;18.10;95.50
6252;DHT22;3159;52.414;9.784;2023-05-03T13:22:53;17.90;96.40
6252;DHT22;3159;52.414;9.784;2023-05-03T13:25:20;17.20;95.20
6252;DHT22;3159;52.414;9.784;2023-05-03T13:27:47;17.60;95.40
6252;DHT22;3159;52.414;9.784;2023-05-03T13:30:16;18.40;96.50
6252;DHT22;3159;52.414;9.784;2023-05-03T13:32:43;19.00;96.40
6252;DHT22;3159;52.414;9.784;2023-05-03T13:35:10;19.30;96.80
6252;DHT22;3159;52.414;9.784;2023-05-03T13:37:36;19.30;96.00
6252;DHT22;3159;52.414;9.784;2023-05-03T13:40:04;19.50;96.10
6252;DHT22;3159;52.414;9.784;2023-05-03T13:42:32;19.80;95.90
6252;DHT22;3159;52.414;9.784;2023-05-03T13:44:59;19.70;95.80
6252;DHT22;3159;52.414;9.784;2023-05-03T13:47:27;19.90;95.40
6252;DHT22;3159;52.414;9.784;2023-05-03T13:49:54;20.00;96.50
6252;DHT22;3159;52.414;9.784;2023-05-03T13:52:22;19.90;96.30
6252;DHT22;3159;52.414;9.784;2023-05-03T13:54:48;19.60;95.90
6252;DHT22;3159;52.414;9.784;2023-05-03T13:57:16;19.70;96.10
6252;DHT22;3159;52.414;9.784;2023-05-03T13:59:43;19.30;95.70
6252;DHT22;3159;52.414;9.784;2023-05-03T14:02:10;19.50;96.10
6252;DHT22;3159;52.414;9.784;2023-05-03T14:04:38;19.80;95.80
6252;DHT22;3159;52.414;9.784;2023-05-03T14:07:05;19.90;96.30
6252;DHT22;3159;52.414;9.784;2023-05-03T14:09:32;20.00;97.00
6252;DHT22;3159;52.414;9.784;2023-05-03T14:12:04;19.90;96.70
6252;DHT22;3159;52.414;9.784;2023-05-03T14:14:32;20.00;96.80
6252;DHT22;3159;52.414;9.784;2023-05-03T14:16:59;19.80;95.60
6252;DHT22;3159;52.414;9.784;2023-05-03T14:19:25;19.30;95.10
6252;DHT22;3159;52.414;9.784;2023-05-03T14:21:56;19.20;96.80
6252;DHT22;3159;52.414;9.784;2023-05-03T14:24:24;18.90;96.10
6252;DHT22;3159;52.414;9.784;2023-05-03T14:26:51;19.00;95.40
6252;DHT22;3159;52.414;9.784;2023-05-03T14:29:18;18.90;96.50
6252;DHT22;3159;52.414;9.784;2023-05-03T14:31:45;17.60;94.30
6252;DHT22;3159;52.414;9.784;2023-05-03T14:34:12;17.50;94.90
6252;DHT22;3159;52.414;9.784;2023-05-03T14:36:39;17.90;96.10
6252;DHT22;3159;52.414;9.784;2023-05-03T14:39:10;18.30;95.50
6252;DHT22;3159;52.414;9.784;2023-05-03T14:41:39;18.80;95.80
6252;DHT22;3159;52.414;9.784;2023-05-03T14:44:06;19.00;96.20
6252;DHT22;3159;52.414;9.784;2023-05-03T14:46:33;19.20;96.60
6252;DHT22;3159;52.414;9.784;2023-05-03T14:49:00;18.20;94.80
6252;DHT22;3159;52.414;9.784;2023-05-03T14:51:27;18.30;96.80
6252;DHT22;3159;52.414;9.784;2023-05-03T14:53:54;17.30;94.70
6252;DHT22;3159;52.414;9.784;2023-05-03T14:56:22;17.40;96.80
6252;DHT22;3159;52.414;9.784;2023-05-03T14:58:49;18.10;97.00
6252;DHT22;3159;52.414;9.784;2023-05-03T15:01:17;16.90;95.30
6252;DHT22;3159;52.414;9.784;2023-05-03T15:03:43;17.20;96.00
6252;DHT22;3159;52.414;9.784;2023-05-03T15:06:10;16.70;95.90
6252;DHT22;3159;52.414;9.784;2023-05-03T15:08:37;17.60;97.50
6252;DHT22;3159;52.414;9.784;2023-05-03T15:11:04;18.10;97.80
6252;DHT22;3159;52.414;9.784;2023-05-03T15:13:33;18.20;97.80
6252;DHT22;3159;52.414;9.784;2023-05-03T15:16:00;17.90;95.90
6252;DHT22;3159;52.414;9.784;2023-05-03T15:18:27;17.20;96.00
6252;DHT22;3159;52.414;9.784;2023-05-03T15:20:55;16.60;97.60
6252;DHT22;3159;52.414;9.784;2023-05-03T15:23:22;17.00;98.00
6252;DHT22;3159;52.414;9.784;2023-05-03T15:25:49;17.70;97.10
6252;DHT22;3159;52.414;9.784;2023-05-03T15:28:16;17.70;97.90
6252;DHT22;3159;52.414;9.784;2023-05-03T15:30:44;18.20;98.20
6252;DHT22;3159;52.414;9.784;2023-05-03T15:33:12;16.50;96.20
6252;DHT22;3159;52.414;9.784;2023-05-03T15:35:39;16.80;97.40
6252;DHT22;3159;52.414;9.784;2023-05-03T15:38:06;17.50;97.90
6252;DHT22;3159;52.414;9.784;2023-05-03T15:40:33;18.00;97.80
6252;DHT22;3159;52.414;9.784;2023-05-03T15:43:00;18.20;98.50
6252;DHT22;3159;52.414;9.784;2023-05-03T15:45:27;18.30;97.70
6252;DHT22;3159;52.414;9.784;2023-05-03T15:47:55;18.40;97.50
6252;DHT22;3159;52.414;9.784;2023-05-03T15:50:22;16.90;95.40
6252;DHT22;3159;52.414;9.784;2023-05-03T15:52:49;17.10;95.90
6252;DHT22;3159;52.414;9.784;2023-05-03T15:55:17;17.20;96.70
6252;DHT22;3159;52.414;9.784;2023-05-03T15:57:44;16.50;96.00
6252;DHT22;3159;52.414;9.784;2023-05-03T16:00:13;16.90;96.30
6252;DHT22;3159;52.414;9.784;2023-05-03T16:02:40;16.90;95.60
6252;DHT22;3159;52.414;9.784;2023-05-03T16:05:09;16.40;96.60
6252;DHT22;3159;52.414;9.784;2023-05-03T16:07:36;16.70;96.90
6252;DHT22;3159;52.414;9.784;2023-05-03T16:10:03;16.30;96.90
6252;DHT22;3159;52.414;9.784;2023-05-03T16:12:30;16.20;96.90
6252;DHT22;3159;52.414;9.784;2023-05-03T16:14:57;16.80;98.30